Sugar Land Regional Airport
KSGR : now visible

Airfield :











YOU CAN JOIN US ON...

 
LOGIN :

Register | Disclaimer

   EN    FR    IT 

 









Legend :    VFR   Marginal VFR   IFR   Intensive IFR   Very Intensive IFR
Visi :
Ceiling :
>= 8 km
>= 3000ft
5 to 8 km
1000 to 3000 ft
1500m to 5 km
500 to 1000 ft
800 to 1500m
200 to 500 ft
< 800m
< 200 ft
Symbols :   Thunderstorms  Fog  Heavy snow  Heavy precipitations  Wind > 20 kt







- Airport Elevation : 82 ft


KSGR - Sugar Land Regional

CURRENT METAR :
  • 220053Z 13007KT 10SM CLR 28/23 A3000 RMK AO2 SLP158 T02780228

EXPIRED METARs :
  • 212353Z 13011KT 10SM CLR 29/23 A2999 RMK AO2 SLP157 60000 T02940228 10328 20294 56005
  • 212253Z 13013KT 10SM FEW041 30/23 A3000 RMK AO2 SLP157 T03000233

TAF KSGR
Valid from the 22 at 00:00 until the 23 at 00:00 UTC


212337Z 2200/2224 13008KT P6SM SCT025 SCT250
TEMPO 2214/2216 BKN025
FM221600 14010KT P6SM VCSH SCT025 BKN035
FM222100 15010KT P6SM SCT040 BKN250
No reported NOTAMs for that airfield.



MET'MAP, your aeronautical weather chart ! - Copyright ORBIFLY December 2007 - Disclaimer

ORBIFLY MET'MAP TEAM :

Programming & Development : Alexandra Zaïnal
Concept & Development : Baudouin d'Aumeries
Co-Development & Prog : Marc-Olivier Méhu
Technical & hardware support : Manuel Goepfert

Contact : metmap@orbifly.com




SOURCES & CREDITS :

   NOAA       Earth
Advisory